Time;durP1;ratioP1;P1;durP2;ratioP2;P2;SDS_P1;SDS_P2;PMS_P1;PMS_P2;Temp;Humidity;BMP_temperature;BMP_pressure;BME280_temperature;BME280_humidity;BME280_pressure;Samples;Min_cycle;Max_cycle;Signal;HPM_P1;HPM_P2
2022/01/10 00:01:07;;;;;;;0.90;0.90;;;3.00;99.90;;;;;;5002863;28;20076;-77
2022/01/10 00:03:32;;;;;;;6.23;1.87;;;2.90;99.90;;;;;;5001503;28;20477;-77
2022/01/10 00:05:58;;;;;;;7.33;1.73;;;2.90;99.90;;;;;;5001913;28;20053;-77
2022/01/10 00:08:24;;;;;;;1.33;1.30;;;2.90;99.90;;;;;;4984694;28;20053;-77
2022/01/10 00:10:51;;;;;;;1.57;1.47;;;2.90;99.90;;;;;;5000729;28;20149;-77
2022/01/10 00:13:17;;;;;;;3.50;2.13;;;2.90;99.90;;;;;;4999890;28;20089;-77
2022/01/10 00:15:44;;;;;;;3.30;1.73;;;2.80;99.90;;;;;;5010643;28;20419;-77
2022/01/10 00:18:10;;;;;;;11.33;1.97;;;2.80;99.90;;;;;;5021250;28;20455;-76
2022/01/10 00:20:36;;;;;;;2.70;2.07;;;2.80;99.90;;;;;;5002975;28;20049;-74
2022/01/10 00:23:02;;;;;;;3.80;2.23;;;2.80;99.90;;;;;;5021249;28;20042;-74
2022/01/10 00:25:28;;;;;;;1.93;1.63;;;2.90;99.90;;;;;;5020370;28;20046;-74
2022/01/10 00:27:54;;;;;;;15.73;1.67;;;2.80;99.90;;;;;;5020973;28;20117;-74
2022/01/10 00:30:23;;;;;;;3.93;1.50;;;2.80;99.90;;;;;;5012434;28;20120;-74
2022/01/10 00:32:50;;;;;;;0.90;0.90;;;2.80;99.90;;;;;;5007474;28;20137;-75
2022/01/10 00:35:16;;;;;;;3.67;2.60;;;2.80;99.90;;;;;;5000965;28;20053;-74
2022/01/10 00:37:43;;;;;;;1.87;1.27;;;2.80;99.90;;;;;;5001404;28;20489;-74
2022/01/10 00:40:10;;;;;;;1.63;1.50;;;2.80;99.90;;;;;;5012201;28;20488;-74
2022/01/10 00:42:36;;;;;;;2.20;1.93;;;2.80;99.90;;;;;;5001603;28;20124;-74
2022/01/10 00:45:12;;;;;;;4.47;2.53;;;2.80;99.90;;;;;;5021451;28;20046;-74
2022/01/10 00:47:38;;;;;;;10.83;3.13;;;2.80;99.90;;;;;;5020268;28;20515;-74
2022/01/10 00:50:04;;;;;;;5.47;2.57;;;2.80;99.90;;;;;;5020910;28;20045;-74
2022/01/10 00:52:29;;;;;;;1.77;1.40;;;2.80;99.90;;;;;;5020430;28;20041;-74
2022/01/10 00:54:55;;;;;;;1.20;1.10;;;2.80;99.90;;;;;;5009059;28;20125;-74
2022/01/10 00:57:20;;;;;;;1.00;1.00;;;2.80;99.90;;;;;;4966098;28;20452;-74
2022/01/10 00:59:46;;;;;;;2.20;1.73;;;2.70;99.90;;;;;;5001689;28;20050;-75
2022/01/10 01:02:12;;;;;;;8.47;2.33;;;2.70;99.90;;;;;;4983252;28;20068;-74
2022/01/10 01:04:38;;;;;;;1.50;1.40;;;2.70;99.90;;;;;;5014104;28;20090;-74
2022/01/10 01:07:03;;;;;;;1.40;1.30;;;2.70;99.90;;;;;;5020858;28;20045;-74
2022/01/10 01:09:30;;;;;;;1.67;1.50;;;2.70;99.90;;;;;;5020386;28;20089;-74
2022/01/10 01:17:32;;;;;;;5.27;2.23;;;2.70;99.90;;;;;;5002985;28;20077;-74
2022/01/10 01:25:09;;;;;;;3.30;1.80;;;2.60;99.90;;;;;;4984537;28;20046;-74
2022/01/10 01:27:34;;;;;;;1.70;1.60;;;2.60;99.90;;;;;;4982391;28;20041;-74
2022/01/10 01:30:00;;;;;;;5.03;2.87;;;2.60;99.90;;;;;;5009149;28;20040;-74
2022/01/10 01:32:26;;;;;;;14.70;1.90;;;2.50;99.90;;;;;;5020332;28;20057;-74
2022/01/10 01:34:56;;;;;;;1.40;1.20;;;2.50;99.90;;;;;;5002845;28;20056;-74
2022/01/10 01:37:21;;;;;;;6.00;1.77;;;2.60;99.90;;;;;;5019500;28;20053;-74
2022/01/10 01:39:47;;;;;;;3.20;1.97;;;2.50;99.90;;;;;;5009892;28;20227;-76
2022/01/10 01:42:47;;;;;;;7.83;2.30;;;2.50;99.90;;;;;;5000194;28;20038;-74
2022/01/10 01:45:08;;;;;;;2.37;2.07;;;2.50;99.90;;;;;;4980072;28;20096;-74
2022/01/10 01:47:33;;;;;;;3.20;1.23;;;2.50;99.90;;;;;;4983475;28;20042;-74
2022/01/10 01:50:00;;;;;;;6.13;2.33;;;2.50;99.90;;;;;;4997070;28;20052;-74
2022/01/10 01:52:26;;;;;;;2.03;1.90;;;2.50;99.90;;;;;;5023574;28;20082;-74
2022/01/10 01:54:52;;;;;;;14.50;2.33;;;2.50;99.90;;;;;;5024059;28;20041;-74
2022/01/10 01:57:19;;;;;;;1.73;1.63;;;2.50;99.90;;;;;;5022996;28;20045;-74
2022/01/10 01:59:44;;;;;;;2.20;2.03;;;2.50;99.90;;;;;;5006237;28;20087;-74
2022/01/10 02:02:10;;;;;;;21.10;3.47;;;2.50;99.90;;;;;;5023925;28;20045;-74
2022/01/10 02:04:36;;;;;;;3.23;1.57;;;2.50;99.90;;;;;;5022731;28;20819;-74
2022/01/10 02:07:02;;;;;;;2.70;1.90;;;2.50;99.90;;;;;;5023818;28;20038;-74
2022/01/10 02:09:28;;;;;;;2.33;2.13;;;2.40;99.90;;;;;;5011047;28;20061;-74
2022/01/10 02:11:54;;;;;;;9.30;2.07;;;2.40;99.90;;;;;;5002335;28;20496;-74
2022/01/10 02:14:20;;;;;;;1.63;1.53;;;2.40;99.90;;;;;;5015410;28;20050;-74
2022/01/10 02:16:53;;;;;;;0.63;0.63;;;2.40;99.90;;;;;;5023938;28;20396;-74
2022/01/10 02:19:19;;;;;;;3.90;2.57;;;2.30;99.90;;;;;;5023592;28;20080;-74
2022/01/10 02:21:45;;;;;;;6.50;1.30;;;2.30;99.90;;;;;;5023572;28;20077;-74
2022/01/10 02:24:10;;;;;;;2.57;2.40;;;2.40;99.90;;;;;;5005613;28;20068;-74
2022/01/10 02:26:39;;;;;;;2.73;1.77;;;2.30;99.90;;;;;;5022132;28;20685;-75
2022/01/10 02:29:05;;;;;;;4.93;2.00;;;2.30;99.90;;;;;;5002241;28;20041;-76
2022/01/10 02:31:35;;;;;;;8.70;1.83;;;2.30;99.90;;;;;;5023039;28;20053;-76
2022/01/10 02:34:03;;;;;;;4.47;1.97;;;2.30;99.90;;;;;;4989116;28;20089;-76
2022/01/10 02:36:29;;;;;;;2.43;2.23;;;2.30;99.90;;;;;;5004339;28;20044;-76
2022/01/10 02:38:57;;;;;;;2.27;2.13;;;2.30;99.90;;;;;;5006004;28;20124;-76
2022/01/10 02:41:24;;;;;;;2.70;2.40;;;2.30;99.90;;;;;;5022184;28;20053;-76
2022/01/10 02:43:51;;;;;;;2.93;2.00;;;2.30;99.90;;;;;;5000756;28;20038;-76
2022/01/10 02:46:16;;;;;;;3.27;1.80;;;2.30;99.90;;;;;;5003297;28;20480;-79
2022/01/10 02:48:42;;;;;;;2.43;1.97;;;2.30;99.90;;;;;;5003300;28;20108;-76
2022/01/10 02:51:08;;;;;;;6.47;2.70;;;2.30;99.90;;;;;;5004303;28;20116;-76
2022/01/10 02:53:33;;;;;;;2.63;2.40;;;2.30;99.90;;;;;;4969374;28;20042;-76
2022/01/10 02:55:59;;;;;;;7.73;2.30;;;2.30;99.90;;;;;;5001873;28;20611;-76
2022/01/10 02:58:24;;;;;;;2.77;2.57;;;2.30;99.90;;;;;;4985516;28;20737;-76
2022/01/10 03:00:50;;;;;;;1.87;1.77;;;2.20;99.90;;;;;;5002435;28;20125;-76
2022/01/10 03:03:15;;;;;;;3.27;2.90;;;2.30;99.90;;;;;;5003004;28;20038;-76
2022/01/10 03:05:41;;;;;;;0.70;0.70;;;2.30;99.90;;;;;;4985399;28;20050;-76
2022/01/10 03:08:07;;;;;;;2.73;2.07;;;2.20;99.90;;;;;;5002764;28;20120;-76
2022/01/10 03:10:32;;;;;;;2.37;2.00;;;2.20;99.90;;;;;;4983851;28;20089;-76
2022/01/10 03:12:59;;;;;;;8.20;2.97;;;2.30;99.90;;;;;;5003737;28;20046;-76
2022/01/10 03:15:26;;;;;;;3.57;2.43;;;2.20;99.90;;;;;;5006618;28;20048;-76
2022/01/10 03:17:52;;;;;;;3.90;3.50;;;2.20;99.90;;;;;;5022582;28;20045;-76
2022/01/10 03:20:18;;;;;;;10.23;3.57;;;2.20;99.90;;;;;;5004179;28;20046;-76
2022/01/10 03:22:44;;;;;;;7.73;3.67;;;2.20;99.90;;;;;;5022504;28;20037;-76
2022/01/10 03:25:10;;;;;;;11.67;2.67;;;2.20;99.90;;;;;;5003716;28;20515;-76
2022/01/10 03:27:35;;;;;;;6.50;2.73;;;2.20;99.90;;;;;;5021979;28;20737;-76
2022/01/10 03:30:01;;;;;;;2.47;2.27;;;2.20;99.90;;;;;;5017773;28;20060;-76
2022/01/10 03:32:27;;;;;;;2.67;2.47;;;2.20;99.90;;;;;;4968512;28;20099;-76
2022/01/10 03:34:52;;;;;;;17.00;1.93;;;2.20;99.90;;;;;;5002053;28;20034;-76
2022/01/10 03:37:18;;;;;;;3.60;3.40;;;2.20;99.90;;;;;;5001850;28;20041;-76
2022/01/10 03:39:43;;;;;;;3.67;2.30;;;2.20;99.90;;;;;;5002989;28;20046;-76
2022/01/10 03:42:09;;;;;;;2.93;2.73;;;2.20;99.90;;;;;;5003780;28;20053;-76
2022/01/10 03:44:35;;;;;;;8.10;2.80;;;2.10;99.90;;;;;;5021235;28;20041;-76
2022/01/10 03:47:01;;;;;;;2.73;2.53;;;2.20;99.90;;;;;;5022102;28;20109;-76
2022/01/10 03:49:27;;;;;;;2.03;1.83;;;2.10;99.90;;;;;;5021346;28;20048;-76
2022/01/10 03:51:53;;;;;;;2.90;2.70;;;2.10;99.90;;;;;;5003489;28;20065;-76
2022/01/10 03:54:18;;;;;;;2.20;2.10;;;2.10;99.90;;;;;;4984494;28;20056;-76
2022/01/10 03:56:44;;;;;;;3.10;2.73;;;2.10;99.90;;;;;;5001147;28;20034;-76
2022/01/10 03:59:10;;;;;;;2.77;2.17;;;2.10;99.90;;;;;;5001886;28;20045;-76
2022/01/10 04:01:38;;;;;;;3.10;2.83;;;2.10;99.90;;;;;;5001597;28;20865;-76
2022/01/10 04:04:05;;;;;;;2.80;2.10;;;2.10;99.90;;;;;;5001562;28;20046;-76
2022/01/10 04:06:30;;;;;;;3.17;2.70;;;2.10;99.90;;;;;;5018104;28;20060;-76
2022/01/10 04:08:56;;;;;;;11.53;3.57;;;2.10;99.90;;;;;;5021136;28;20041;-76
2022/01/10 04:11:22;;;;;;;15.87;1.77;;;2.10;99.90;;;;;;5020132;28;20041;-76
2022/01/10 04:13:47;;;;;;;3.87;2.33;;;2.10;99.90;;;;;;5005061;28;20042;-77
2022/01/10 04:16:13;;;;;;;3.07;2.30;;;2.10;99.90;;;;;;5010531;28;20221;-76
2022/01/10 04:18:38;;;;;;;1.47;1.37;;;2.10;99.90;;;;;;5021682;28;20037;-76
2022/01/10 04:21:04;;;;;;;3.50;3.20;;;2.10;99.90;;;;;;5020892;28;20052;-76
2022/01/10 04:23:30;;;;;;;5.03;3.50;;;2.00;99.90;;;;;;5020973;28;20108;-76
2022/01/10 04:25:56;;;;;;;5.67;2.67;;;2.10;99.90;;;;;;5020335;28;20042;-76
2022/01/10 04:28:21;;;;;;;13.47;2.73;;;2.00;99.90;;;;;;5020295;28;20053;-76
2022/01/10 04:30:48;;;;;;;8.00;4.63;;;2.00;99.90;;;;;;5013051;28;20038;-76
2022/01/10 04:33:17;;;;;;;22.13;2.07;;;2.00;99.90;;;;;;5001938;28;20085;-76
2022/01/10 04:35:43;;;;;;;2.77;2.33;;;2.00;99.90;;;;;;4983265;28;20121;-76
2022/01/10 04:38:09;;;;;;;8.70;3.83;;;2.00;99.90;;;;;;5007971;28;20125;-76
2022/01/10 04:40:36;;;;;;;4.13;3.80;;;1.90;99.90;;;;;;5013976;28;20038;-77
2022/01/10 04:43:01;;;;;;;3.50;3.00;;;1.90;99.90;;;;;;5001322;28;20081;-76
2022/01/10 04:45:27;;;;;;;3.00;1.73;;;1.90;99.90;;;;;;5001247;28;20086;-76
2022/01/10 04:47:52;;;;;;;2.63;2.40;;;1.90;99.90;;;;;;5000700;28;20046;-76
2022/01/10 04:52:48;;;;;;;1.50;1.40;;;1.90;99.90;;;;;;5001565;28;20459;-78
2022/01/10 04:55:14;;;;;;;3.27;2.60;;;1.90;99.90;;;;;;4982267;28;20522;-76
2022/01/10 04:57:41;;;;;;;1.93;1.67;;;1.90;99.90;;;;;;5001152;28;20038;-76
2022/01/10 05:00:09;;;;;;;4.73;2.87;;;1.90;99.90;;;;;;5001005;28;20072;-76
2022/01/10 05:02:36;;;;;;;16.70;4.17;;;1.90;99.90;;;;;;4982937;28;20101;-76
2022/01/10 05:05:02;;;;;;;3.67;3.20;;;1.90;99.90;;;;;;5007482;28;20051;-76
2022/01/10 05:07:27;;;;;;;2.80;2.57;;;1.90;99.90;;;;;;5002448;28;20050;-76
2022/01/10 05:09:53;;;;;;;2.30;2.20;;;1.90;99.90;;;;;;5019447;28;20060;-76
2022/01/10 05:12:22;;;;;;;9.13;3.63;;;1.90;99.90;;;;;;5020679;28;20049;-77
2022/01/10 05:14:47;;;;;;;3.57;3.03;;;1.90;99.90;;;;;;5020446;28;20052;-78
2022/01/10 05:17:13;;;;;;;10.47;3.67;;;1.80;99.90;;;;;;5020950;28;20049;-76
2022/01/10 05:19:38;;;;;;;1.37;1.27;;;1.90;99.90;;;;;;5019764;28;20038;-76
2022/01/10 05:22:04;;;;;;;3.97;3.60;;;1.90;99.90;;;;;;5020584;28;20045;-76
2022/01/10 05:24:29;;;;;;;2.03;1.80;;;1.80;99.90;;;;;;5024334;28;20060;-76
2022/01/10 05:26:55;;;;;;;1.97;1.87;;;1.90;99.90;;;;;;5023145;28;20400;-76
2022/01/10 05:29:20;;;;;;;3.63;3.33;;;1.90;99.90;;;;;;5005794;28;20488;-76
2022/01/10 05:31:46;;;;;;;3.60;1.97;;;1.80;99.90;;;;;;5025060;28;20104;-78
2022/01/10 05:34:12;;;;;;;1.80;1.60;;;1.80;99.90;;;;;;5006643;28;20569;-76
2022/01/10 05:36:37;;;;;;;3.23;3.03;;;1.80;99.90;;;;;;5006493;28;20083;-76
2022/01/10 05:39:03;;;;;;;3.67;3.20;;;1.80;99.90;;;;;;5024244;28;20042;-76
2022/01/10 05:41:29;;;;;;;1.73;1.63;;;1.80;99.90;;;;;;5023207;28;20041;-76
2022/01/10 05:43:55;;;;;;;11.30;3.40;;;1.70;99.90;;;;;;5024155;28;20411;-76
2022/01/10 05:46:22;;;;;;;2.43;2.23;;;1.70;99.90;;;;;;5023441;28;20034;-77
2022/01/10 05:48:51;;;;;;;2.77;2.57;;;1.70;99.90;;;;;;5022964;28;20302;-76
2022/01/10 05:51:19;;;;;;;3.80;3.33;;;1.70;99.90;;;;;;5022712;28;20041;-77
2022/01/10 05:53:45;;;;;;;11.07;4.43;;;1.70;99.90;;;;;;5005835;28;20045;-76
2022/01/10 05:56:11;;;;;;;3.30;2.70;;;1.70;99.90;;;;;;5022981;28;20046;-76
2022/01/10 05:58:37;;;;;;;5.50;3.60;;;1.70;99.90;;;;;;5023823;28;20049;-75
2022/01/10 06:01:03;;;;;;;6.90;2.43;;;1.70;99.90;;;;;;5005990;28;20547;-75
2022/01/10 06:03:28;;;;;;;5.90;4.53;;;1.70;99.90;;;;;;5023752;28;20527;-76
2022/01/10 06:05:54;;;;;;;3.10;2.90;;;1.70;99.90;;;;;;5023344;28;20037;-76
2022/01/10 06:08:19;;;;;;;2.53;2.43;;;1.70;99.90;;;;;;4993096;28;20124;-75
2022/01/10 06:10:45;;;;;;;3.50;3.27;;;1.60;99.90;;;;;;5003308;28;20504;-76
2022/01/10 06:13:11;;;;;;;2.63;2.40;;;1.60;99.90;;;;;;5003583;28;20688;-75
2022/01/10 06:15:37;;;;;;;2.43;2.20;;;1.60;99.90;;;;;;5003869;28;20500;-76
2022/01/10 06:18:03;;;;;;;2.90;2.70;;;1.60;99.90;;;;;;4986382;28;20053;-76
2022/01/10 06:20:28;;;;;;;6.47;3.93;;;1.60;99.90;;;;;;5000046;28;20416;-75
2022/01/10 06:22:54;;;;;;;5.07;3.67;;;1.60;99.90;;;;;;5021850;28;20068;-76
2022/01/10 06:25:23;;;;;;;8.27;2.97;;;1.60;99.90;;;;;;5002890;28;20120;-76
2022/01/10 06:27:48;;;;;;;2.40;2.20;;;1.70;99.90;;;;;;5022264;28;20042;-76
2022/01/10 06:30:14;;;;;;;6.70;3.23;;;1.70;99.90;;;;;;5004787;28;20399;-75
2022/01/10 06:32:40;;;;;;;5.47;4.13;;;1.60;99.90;;;;;;5020676;28;20052;-75
2022/01/10 06:35:06;;;;;;;4.80;4.40;;;1.70;99.90;;;;;;5003206;28;20122;-75
2022/01/10 06:37:32;;;;;;;3.40;3.17;;;1.70;99.90;;;;;;5020837;28;20045;-75
2022/01/10 06:39:58;;;;;;;5.97;5.13;;;1.60;99.90;;;;;;5020857;28;20044;-76
2022/01/10 06:42:23;;;;;;;3.77;3.47;;;1.60;99.90;;;;;;5021771;28;20041;-77
2022/01/10 06:44:50;;;;;;;5.97;4.97;;;1.60;99.90;;;;;;4992810;28;20050;-75
2022/01/10 06:47:15;;;;;;;4.97;4.23;;;1.60;99.90;;;;;;5002697;28;20081;-75
2022/01/10 06:49:41;;;;;;;5.60;5.03;;;1.60;99.90;;;;;;5001203;28;20566;-75
2022/01/10 06:52:07;;;;;;;5.03;4.00;;;1.60;99.90;;;;;;5016300;28;20033;-75
2022/01/10 06:54:32;;;;;;;3.57;3.33;;;1.60;99.90;;;;;;5002651;28;20085;-75
2022/01/10 06:56:58;;;;;;;5.00;4.50;;;1.60;99.90;;;;;;5003446;28;20241;-75
2022/01/10 06:59:25;;;;;;;5.60;5.07;;;1.50;99.90;;;;;;4987390;28;20052;-75
2022/01/10 07:01:52;;;;;;;4.83;3.23;;;1.50;99.90;;;;;;5021467;28;20084;-75
2022/01/10 07:04:18;;;;;;;8.40;4.60;;;1.50;99.90;;;;;;4986808;28;20549;-76
2022/01/10 07:06:43;;;;;;;4.47;4.07;;;1.50;99.90;;;;;;5003764;28;20045;-76
2022/01/10 07:09:09;;;;;;;8.70;4.67;;;1.50;99.90;;;;;;5021248;28;20447;-75
2022/01/10 07:11:35;;;;;;;8.63;6.20;;;1.50;99.90;;;;;;5020015;28;20053;-75
2022/01/10 07:14:03;;;;;;;4.60;4.20;;;1.50;99.90;;;;;;4993550;28;20093;-75
2022/01/10 07:16:28;;;;;;;4.37;3.73;;;1.50;99.90;;;;;;4983127;28;20044;-75
2022/01/10 07:18:54;;;;;;;6.90;3.53;;;1.50;99.90;;;;;;5017438;28;20105;-75
2022/01/10 07:21:20;;;;;;;4.97;4.53;;;1.50;99.90;;;;;;5001336;28;20061;-75
2022/01/10 07:23:45;;;;;;;5.20;4.23;;;1.50;99.90;;;;;;5001462;28;20624;-75
2022/01/10 07:26:11;;;;;;;5.73;4.90;;;1.40;99.90;;;;;;5000494;28;20064;-76
2022/01/10 07:28:37;;;;;;;4.33;3.93;;;1.50;99.90;;;;;;5000823;28;20547;-75
2022/01/10 07:31:02;;;;;;;15.23;4.70;;;1.50;99.90;;;;;;5017313;28;20045;-75
2022/01/10 07:33:28;;;;;;;4.33;4.03;;;1.40;99.90;;;;;;5001319;28;20547;-75
2022/01/10 07:35:53;;;;;;;5.40;5.00;;;1.40;99.90;;;;;;5014017;28;20334;-75
2022/01/10 07:38:19;;;;;;;5.80;5.30;;;1.40;99.90;;;;;;5020690;28;20943;-76
2022/01/10 07:40:45;;;;;;;4.87;4.37;;;1.40;99.90;;;;;;5019917;28;20033;-75
2022/01/10 07:43:10;;;;;;;6.67;5.90;;;1.40;99.90;;;;;;5020704;28;20077;-76
2022/01/10 07:45:36;;;;;;;5.97;4.97;;;1.40;99.90;;;;;;4985679;28;20655;-75
2022/01/10 07:48:02;;;;;;;7.70;6.20;;;1.40;99.90;;;;;;5020121;28;20045;-75
2022/01/10 07:50:27;;;;;;;4.57;3.87;;;1.40;99.90;;;;;;5020806;28;20388;-75
2022/01/10 07:52:53;;;;;;;7.47;6.70;;;1.40;99.90;;;;;;5020193;28;20049;-75
2022/01/10 07:55:18;;;;;;;4.97;4.43;;;1.40;99.90;;;;;;4993722;28;20670;-75
2022/01/10 07:57:45;;;;;;;6.07;5.57;;;1.40;99.90;;;;;;5033441;28;20052;-75
2022/01/10 08:00:12;;;;;;;4.07;3.77;;;1.40;99.90;;;;;;5036606;28;20034;-75
2022/01/10 08:02:38;;;;;;;4.47;4.07;;;1.40;99.90;;;;;;5020335;28;20132;-77
2022/01/10 08:05:05;;;;;;;6.60;4.90;;;1.50;99.90;;;;;;4985858;28;20388;-75
2022/01/10 08:07:30;;;;;;;6.97;6.47;;;1.50;99.90;;;;;;5019472;28;20033;-75
2022/01/10 08:09:56;;;;;;;6.23;3.83;;;1.40;99.90;;;;;;5019634;28;20049;-75
2022/01/10 08:12:21;;;;;;;7.30;5.07;;;1.40;99.90;;;;;;5022196;28;20072;-75
2022/01/10 08:14:48;;;;;;;5.60;5.17;;;1.40;99.90;;;;;;5040023;28;20475;-76
2022/01/10 08:17:14;;;;;;;5.17;4.77;;;1.40;99.90;;;;;;5029650;28;20033;-76
2022/01/10 08:19:39;;;;;;;4.93;4.47;;;1.50;99.90;;;;;;5019533;28;20034;-75
2022/01/10 08:22:06;;;;;;;18.07;5.70;;;1.50;99.90;;;;;;5002598;28;20399;-75
2022/01/10 08:24:32;;;;;;;8.53;7.13;;;1.50;99.90;;;;;;5017998;28;20041;-76
2022/01/10 08:26:58;;;;;;;6.87;6.33;;;1.50;99.90;;;;;;4997744;28;20518;-76
2022/01/10 08:29:24;;;;;;;6.80;6.17;;;1.50;99.90;;;;;;5010000;28;20065;-75
2022/01/10 08:31:49;;;;;;;5.07;4.30;;;1.50;99.90;;;;;;5015764;28;20042;-75
2022/01/10 08:34:15;;;;;;;10.73;7.87;;;1.40;99.90;;;;;;5001738;28;20391;-78
2022/01/10 08:36:41;;;;;;;6.67;6.03;;;1.50;99.90;;;;;;5016887;28;20388;-75
2022/01/10 08:39:08;;;;;;;6.57;5.97;;;1.40;99.90;;;;;;4996768;28;20056;-75
2022/01/10 08:41:37;;;;;;;7.00;6.43;;;1.40;99.90;;;;;;5020061;28;20041;-75
2022/01/10 08:44:05;;;;;;;8.00;7.07;;;1.40;99.90;;;;;;5016228;28;20038;-76
2022/01/10 08:46:34;;;;;;;9.07;8.10;;;1.40;99.90;;;;;;5017446;28;20045;-77
2022/01/10 08:49:00;;;;;;;9.43;7.90;;;1.50;99.90;;;;;;4988793;28;20045;-76
2022/01/10 08:51:27;;;;;;;9.17;8.13;;;1.50;99.90;;;;;;5015077;28;20033;-76
2022/01/10 08:53:53;;;;;;;10.17;6.77;;;1.50;99.90;;;;;;5003336;28;20095;-77
2022/01/10 08:56:19;;;;;;;10.13;7.33;;;1.50;99.90;;;;;;5000516;28;20045;-75
2022/01/10 08:58:44;;;;;;;24.50;5.20;;;1.50;99.90;;;;;;5019796;28;20045;-77
2022/01/10 09:01:10;;;;;;;6.87;6.27;;;1.50;99.90;;;;;;5018533;28;20164;-76
2022/01/10 09:03:37;;;;;;;6.00;5.47;;;1.50;99.90;;;;;;5001170;28;20088;-77
2022/01/10 09:06:02;;;;;;;6.03;5.37;;;1.50;99.90;;;;;;5018736;28;20041;-76
2022/01/10 09:08:32;;;;;;;5.77;5.27;;;1.50;99.90;;;;;;5019075;28;20447;-75
2022/01/10 09:11:02;;;;;;;7.47;6.83;;;1.50;99.90;;;;;;5013240;28;20610;-75
2022/01/10 09:13:28;;;;;;;8.90;8.10;;;1.50;99.90;;;;;;5014512;28;20096;-74
2022/01/10 09:15:54;;;;;;;22.43;6.90;;;1.60;99.90;;;;;;5011680;28;20562;-74
2022/01/10 09:18:20;;;;;;;8.73;5.63;;;1.60;99.90;;;;;;4994688;28;20049;-74
2022/01/10 09:20:46;;;;;;;9.23;6.37;;;1.70;99.90;;;;;;4997025;28;20085;-74
2022/01/10 09:23:12;;;;;;;6.03;5.43;;;1.70;99.90;;;;;;5000630;28;20121;-73
2022/01/10 09:25:38;;;;;;;5.87;5.37;;;1.70;99.90;;;;;;5003465;28;20042;-75
2022/01/10 09:28:04;;;;;;;15.17;7.63;;;1.70;99.90;;;;;;5002532;28;20596;-76
2022/01/10 09:30:30;;;;;;;10.83;8.00;;;1.70;99.90;;;;;;5020305;28;20127;-76
2022/01/10 09:32:55;;;;;;;8.27;7.47;;;1.70;99.90;;;;;;4984349;28;20073;-75
2022/01/10 09:35:22;;;;;;;6.87;6.37;;;1.70;99.90;;;;;;5000462;28;20610;-75
2022/01/10 09:37:47;;;;;;;6.27;5.70;;;1.70;99.90;;;;;;5018898;28;20034;-77
2022/01/10 09:40:13;;;;;;;9.60;7.80;;;1.70;99.90;;;;;;4999468;28;20096;-74
2022/01/10 09:42:40;;;;;;;7.93;6.33;;;1.70;99.90;;;;;;5000722;28;20034;-75
2022/01/10 09:45:07;;;;;;;7.40;6.77;;;1.70;99.90;;;;;;4983978;28;20273;-73
2022/01/10 09:47:33;;;;;;;7.37;6.03;;;1.80;99.90;;;;;;5001191;28;20088;-76
2022/01/10 09:49:59;;;;;;;10.73;9.60;;;1.80;99.90;;;;;;4994170;28;20045;-73
2022/01/10 09:52:25;;;;;;;8.73;6.83;;;1.80;99.90;;;;;;5017221;28;20061;-74
2022/01/10 09:54:53;;;;;;;7.53;6.83;;;1.80;99.90;;;;;;5017021;28;20130;-74
2022/01/10 09:57:19;;;;;;;7.87;6.57;;;1.80;99.90;;;;;;5014760;28;20145;-75
2022/01/10 09:59:47;;;;;;;10.20;7.37;;;1.80;99.90;;;;;;5018681;28;20646;-74
2022/01/10 10:02:14;;;;;;;8.30;6.30;;;1.80;99.90;;;;;;5002012;28;20038;-74
2022/01/10 10:04:39;;;;;;;10.70;8.37;;;1.80;99.90;;;;;;5000963;28;20500;-74
2022/01/10 10:07:06;;;;;;;11.77;9.00;;;1.90;99.90;;;;;;5016117;28;20101;-75
2022/01/10 10:09:33;;;;;;;9.20;7.90;;;1.90;99.90;;;;;;4996035;28;20083;-74
2022/01/10 10:12:00;;;;;;;10.40;8.87;;;1.90;99.90;;;;;;4981173;28;20045;-74
2022/01/10 10:14:26;;;;;;;15.33;8.10;;;1.90;99.90;;;;;;4981399;28;20046;-74
2022/01/10 10:16:55;;;;;;;8.73;7.87;;;1.90;99.90;;;;;;4981547;28;20042;-75
2022/01/10 10:19:26;;;;;;;9.77;8.87;;;1.90;99.90;;;;;;4980062;28;20085;-75
2022/01/10 10:21:55;;;;;;;10.33;9.37;;;2.00;99.90;;;;;;4982442;28;20066;-74
2022/01/10 10:24:22;;;;;;;10.33;9.37;;;2.00;99.90;;;;;;4981239;28;20076;-73
2022/01/10 10:26:48;;;;;;;10.13;9.23;;;2.00;99.90;;;;;;4981768;28;20081;-74
2022/01/10 10:29:17;;;;;;;22.40;11.77;;;2.00;99.90;;;;;;4979907;28;20111;-74
2022/01/10 10:31:49;;;;;;;9.63;8.73;;;2.00;99.90;;;;;;4977966;28;20057;-73
2022/01/10 10:34:24;;;;;;;10.13;9.27;;;2.10;99.90;;;;;;4972245;28;20050;-74
2022/01/10 10:37:07;;;;;;;9.67;8.20;;;2.00;99.90;;;;;;4983337;28;20041;-75
2022/01/10 10:39:38;;;;;;;9.27;8.33;;;2.10;99.90;;;;;;4979326;28;20041;-74
2022/01/10 10:42:06;;;;;;;16.13;11.67;;;2.10;99.90;;;;;;4975995;28;20100;-75
2022/01/10 10:44:33;;;;;;;11.77;10.10;;;2.10;99.90;;;;;;4971711;28;20058;-74
2022/01/10 10:46:58;;;;;;;11.70;9.43;;;2.10;99.90;;;;;;4983049;28;20045;-74
2022/01/10 10:49:31;;;;;;;9.73;8.87;;;2.10;99.90;;;;;;4967449;28;20055;-73
2022/01/10 10:51:58;;;;;;;10.48;9.48;;;2.20;99.90;;;;;;4975746;28;20611;-74
2022/01/10 10:54:24;;;;;;;12.07;9.50;;;2.20;99.90;;;;;;4980472;28;20055;-74
2022/01/10 10:56:50;;;;;;;8.37;7.63;;;2.20;99.90;;;;;;4964451;28;20043;-75
2022/01/10 10:59:15;;;;;;;12.03;10.93;;;2.20;99.90;;;;;;4964278;28;20533;-78
2022/01/10 11:01:42;;;;;;;15.73;12.87;;;2.20;99.90;;;;;;4971749;28;20094;-75
2022/01/10 11:04:11;;;;;;;13.60;11.70;;;2.20;99.90;;;;;;4967538;28;20117;-75
2022/01/10 11:06:38;;;;;;;14.57;10.10;;;2.20;99.90;;;;;;4976633;28;20368;-75
2022/01/10 11:09:13;;;;;;;12.80;11.53;;;2.30;99.90;;;;;;4982093;28;20516;-75
2022/01/10 11:11:40;;;;;;;13.23;10.13;;;2.30;99.90;;;;;;5006632;28;20053;-75
2022/01/10 11:14:09;;;;;;;18.47;12.23;;;2.30;99.90;;;;;;5028586;28;20504;-75
2022/01/10 11:16:37;;;;;;;10.83;9.90;;;2.30;99.90;;;;;;5008350;28;20056;-75
2022/01/10 11:19:11;;;;;;;12.20;9.53;;;2.30;99.90;;;;;;5012291;28;20396;-76
2022/01/10 11:21:39;;;;;;;8.93;8.10;;;2.40;99.90;;;;;;5001815;28;20045;-75
2022/01/10 11:24:05;;;;;;;12.13;10.83;;;2.40;99.90;;;;;;5016635;28;20034;-76
2022/01/10 11:26:39;;;;;;;16.73;10.60;;;2.40;99.90;;;;;;4985635;28;20049;-76
2022/01/10 11:29:09;;;;;;;10.93;9.83;;;2.40;99.90;;;;;;4993366;28;20054;-75
2022/01/10 11:31:36;;;;;;;13.60;10.27;;;2.40;99.90;;;;;;4987604;28;20128;-76
2022/01/10 11:34:03;;;;;;;12.10;10.37;;;2.40;99.90;;;;;;5004645;28;20492;-77
2022/01/10 11:36:30;;;;;;;11.70;10.67;;;2.40;99.90;;;;;;5004604;28;20530;-76
2022/01/10 11:39:00;;;;;;;16.57;8.97;;;2.50;99.90;;;;;;5011263;28;20046;-75
2022/01/10 11:41:31;;;;;;;18.70;11.17;;;2.50;99.90;;;;;;5006717;28;20441;-76
2022/01/10 11:44:11;;;;;;;12.67;11.23;;;2.50;99.90;;;;;;5001402;28;20045;-76
2022/01/10 11:46:42;;;;;;;9.93;9.17;;;2.50;99.90;;;;;;4981549;28;20066;-77
2022/01/10 11:49:08;;;;;;;12.97;11.50;;;2.50;99.90;;;;;;5015145;28;20486;-76
2022/01/10 11:51:42;;;;;;;19.63;12.10;;;2.60;99.90;;;;;;5018973;28;20132;-76
2022/01/10 11:54:15;;;;;;;18.77;11.97;;;2.60;99.90;;;;;;5002109;28;20747;-76
2022/01/10 11:56:46;;;;;;;16.90;11.00;;;2.60;99.90;;;;;;5020144;28;20585;-75
2022/01/10 11:59:35;;;;;;;15.90;12.40;;;2.70;99.90;;;;;;5003033;28;20072;-74
2022/01/10 12:02:04;;;;;;;16.63;10.63;;;2.70;99.90;;;;;;5003254;28;20149;-76
2022/01/10 12:04:58;;;;;;;11.93;10.43;;;2.70;99.90;;;;;;4997814;28;20053;-77
2022/01/10 12:07:26;;;;;;;11.43;10.43;;;2.80;99.90;;;;;;5017945;28;20081;-75
2022/01/10 12:09:53;;;;;;;15.97;10.13;;;2.80;99.90;;;;;;5018806;28;20054;-78
2022/01/10 12:12:20;;;;;;;13.27;11.40;;;2.80;99.90;;;;;;4972541;28;20526;-75
2022/01/10 12:14:47;;;;;;;10.90;9.93;;;2.80;99.90;;;;;;5023925;28;20041;-75
2022/01/10 12:17:14;;;;;;;11.77;10.60;;;2.90;99.90;;;;;;5040277;28;20069;-75
2022/01/10 12:19:40;;;;;;;20.10;12.37;;;2.90;99.90;;;;;;5022238;28;20506;-76
2022/01/10 12:22:07;;;;;;;19.13;11.47;;;2.90;99.90;;;;;;5012588;28;20045;-75
2022/01/10 12:24:35;;;;;;;13.57;12.30;;;2.90;99.90;;;;;;4998097;28;20128;-73
2022/01/10 12:27:02;;;;;;;13.87;11.00;;;3.00;99.90;;;;;;5014118;28;20060;-75
2022/01/10 12:29:29;;;;;;;12.20;10.43;;;3.00;99.90;;;;;;5013765;28;20037;-73
2022/01/10 12:31:56;;;;;;;19.77;10.87;;;3.00;99.90;;;;;;5019422;28;20407;-74
2022/01/10 12:34:22;;;;;;;19.40;12.63;;;3.00;99.90;;;;;;5002680;28;20065;-73
2022/01/10 12:36:48;;;;;;;15.47;10.87;;;3.00;99.90;;;;;;5020730;28;20045;-74
2022/01/10 12:39:21;;;;;;;16.43;12.77;;;3.10;99.90;;;;;;5019749;28;20230;-74
2022/01/10 12:41:47;;;;;;;14.27;12.77;;;3.10;99.90;;;;;;4984128;28;20053;-75
2022/01/10 12:44:13;;;;;;;23.80;12.60;;;3.10;99.90;;;;;;5005048;28;20069;-77
2022/01/10 12:46:39;;;;;;;14.63;11.17;;;3.10;99.90;;;;;;5016700;28;20038;-76
2022/01/10 12:49:08;;;;;;;14.23;11.57;;;3.20;99.90;;;;;;5012569;28;20048;-76
2022/01/10 12:51:48;;;;;;;13.37;11.90;;;3.20;99.90;;;;;;5004967;28;20053;-78
2022/01/10 12:54:26;;;;;;;11.30;9.73;;;3.20;99.90;;;;;;5017833;28;20120;-78
2022/01/10 12:56:53;;;;;;;16.13;10.30;;;3.30;99.90;;;;;;4985154;28;20119;-77
2022/01/10 12:59:24;;;;;;;15.50;10.83;;;3.30;99.90;;;;;;5009368;28;20182;-78
2022/01/10 13:01:52;;;;;;;15.67;9.20;;;3.30;99.90;;;;;;5031675;28;20041;-78
2022/01/10 13:04:23;;;;;;;30.57;12.03;;;3.30;99.90;;;;;;4982762;28;20324;-78